Time;durP1;ratioP1;P1;durP2;ratioP2;P2;SDS_P1;SDS_P2;PMS_P1;PMS_P2;Temp;Humidity;BMP_temperature;BMP_pressure;BME280_temperature;BME280_humidity;BME280_pressure;Samples;Min_cycle;Max_cycle;Signal;HPM_P1;HPM_P2
2021/06/02 00:02:10;;;;;;;7.00;5.90;;;11.90;99.90;;;;;;4955007;28;20226;-77
2021/06/02 00:04:43;;;;;;;8.23;6.10;;;11.80;99.90;;;;;;4930221;28;20556;-77
2021/06/02 00:07:10;;;;;;;6.50;5.60;;;11.80;99.90;;;;;;4929477;29;20208;-78
2021/06/02 00:09:37;;;;;;;9.13;6.77;;;11.70;99.90;;;;;;4955373;29;20196;-78
2021/06/02 00:12:07;;;;;;;7.47;6.43;;;11.70;99.90;;;;;;4930541;29;20230;-79
2021/06/02 00:14:34;;;;;;;10.57;7.27;;;11.60;99.90;;;;;;4937743;29;20202;-78
2021/06/02 00:17:00;;;;;;;7.63;6.83;;;11.60;99.90;;;;;;4930177;29;20203;-77
2021/06/02 00:19:28;;;;;;;7.40;6.70;;;11.60;99.90;;;;;;4937798;29;20194;-77
2021/06/02 00:21:56;;;;;;;7.93;6.93;;;11.50;99.90;;;;;;4947019;29;20210;-78
2021/06/02 00:24:23;;;;;;;8.03;6.93;;;11.40;99.90;;;;;;4937662;29;20592;-78
2021/06/02 00:26:52;;;;;;;7.60;6.90;;;11.40;99.90;;;;;;4950083;29;20194;-78
2021/06/02 00:29:19;;;;;;;7.77;6.57;;;11.40;99.90;;;;;;4929550;29;20743;-77
2021/06/02 00:31:47;;;;;;;7.43;6.57;;;11.40;99.90;;;;;;4929350;29;20230;-78
2021/06/02 00:34:14;;;;;;;9.67;7.07;;;11.30;99.90;;;;;;4946168;29;20265;-78
2021/06/02 00:36:44;;;;;;;8.23;7.00;;;11.30;99.90;;;;;;4949259;29;20202;-78
2021/06/02 00:39:12;;;;;;;9.20;6.90;;;11.30;99.90;;;;;;4934010;29;20210;-78
2021/06/02 00:41:40;;;;;;;8.53;7.57;;;11.20;99.90;;;;;;4936449;28;20222;-77
2021/06/02 00:44:08;;;;;;;9.70;7.50;;;11.20;99.90;;;;;;4946472;29;20277;-78
2021/06/02 00:46:36;;;;;;;8.80;6.83;;;11.10;99.90;;;;;;4929573;29;20195;-78
2021/06/02 00:49:04;;;;;;;8.40;7.50;;;11.10;99.90;;;;;;4946455;29;20671;-78
2021/06/02 00:51:31;;;;;;;9.90;7.77;;;11.00;99.90;;;;;;4954258;28;20229;-77
2021/06/02 00:54:00;;;;;;;8.13;7.33;;;10.90;99.90;;;;;;4945831;29;20195;-77
2021/06/02 00:56:31;;;;;;;9.03;8.13;;;10.90;99.90;;;;;;4946317;28;20195;-78
2021/06/02 00:59:00;;;;;;;8.30;7.50;;;10.90;99.90;;;;;;4930670;29;20312;-78
2021/06/02 01:01:27;;;;;;;9.17;8.03;;;10.80;99.90;;;;;;4933509;29;20247;-77
2021/06/02 01:03:56;;;;;;;12.17;9.50;;;10.80;99.90;;;;;;4931257;29;20209;-77
2021/06/02 01:06:25;;;;;;;10.07;9.07;;;10.70;99.90;;;;;;4950123;29;20247;-78
2021/06/02 01:08:56;;;;;;;9.57;8.50;;;10.60;99.90;;;;;;4951123;29;20202;-78
2021/06/02 01:11:25;;;;;;;10.77;9.13;;;10.60;99.90;;;;;;4945815;29;20229;-78
2021/06/02 01:13:53;;;;;;;11.50;9.27;;;10.60;99.90;;;;;;4928683;29;20207;-78
2021/06/02 01:16:20;;;;;;;10.33;8.93;;;10.60;99.90;;;;;;4945519;29;20250;-77
2021/06/02 01:18:47;;;;;;;10.00;8.70;;;10.60;99.90;;;;;;4942824;29;20199;-78
2021/06/02 01:21:20;;;;;;;9.93;8.90;;;10.60;99.90;;;;;;4933350;28;20198;-78
2021/06/02 01:23:49;;;;;;;15.43;11.33;;;10.50;99.90;;;;;;4929024;29;20280;-77
2021/06/02 01:26:15;;;;;;;12.03;10.70;;;10.50;99.90;;;;;;4950643;29;20202;-78
2021/06/02 01:28:43;;;;;;;11.57;10.10;;;10.40;99.90;;;;;;4946760;29;20203;-77
2021/06/02 01:31:14;;;;;;;11.80;10.07;;;10.40;99.90;;;;;;4923198;29;20222;-78
2021/06/02 01:33:51;;;;;;;11.27;10.10;;;10.40;99.90;;;;;;4934383;28;20203;-78
2021/06/02 01:36:28;;;;;;;11.73;9.87;;;10.30;99.90;;;;;;4945864;29;20250;-77
2021/06/02 01:39:31;;;;;;;11.07;9.97;;;10.20;99.90;;;;;;4925798;29;20581;-78
2021/06/02 01:42:25;;;;;;;10.10;9.10;;;10.20;99.90;;;;;;4928100;29;20297;-78
2021/06/02 01:45:30;;;;;;;11.13;9.30;;;10.10;99.90;;;;;;4940318;29;20665;-78
2021/06/02 01:48:28;;;;;;;9.80;8.80;;;10.10;99.90;;;;;;4944244;28;20668;-77
2021/06/02 01:51:25;;;;;;;9.70;8.80;;;10.10;99.90;;;;;;4946874;29;20219;-78
2021/06/02 01:54:43;;;;;;;9.70;8.70;;;10.10;99.90;;;;;;4944305;28;20558;-77
2021/06/02 01:57:32;;;;;;;9.50;8.50;;;10.10;99.90;;;;;;4856826;29;20209;-77
2021/06/02 02:00:34;;;;;;;9.57;8.60;;;10.10;99.90;;;;;;4859778;29;20193;-78
2021/06/02 02:03:46;;;;;;;8.93;8.13;;;10.00;99.90;;;;;;4943744;28;20236;-78
2021/06/02 02:06:47;;;;;;;8.80;8.00;;;9.90;99.90;;;;;;4948779;28;20194;-78
2021/06/02 02:09:25;;;;;;;9.17;8.27;;;9.90;99.90;;;;;;4945499;29;20894;-78
2021/06/02 02:11:51;;;;;;;10.13;9.10;;;9.90;99.90;;;;;;4928068;29;20734;-77
2021/06/02 02:14:56;;;;;;;8.90;8.10;;;9.90;99.90;;;;;;4949074;28;20197;-78
2021/06/02 02:17:46;;;;;;;9.07;8.27;;;9.90;99.90;;;;;;4934965;28;20202;-77
2021/06/02 02:20:18;;;;;;;9.50;8.60;;;9.80;99.90;;;;;;4944882;29;20565;-77
2021/06/02 02:23:18;;;;;;;8.67;7.90;;;9.80;99.90;;;;;;4926839;29;20219;-78
2021/06/02 02:25:54;;;;;;;9.57;8.67;;;9.70;99.90;;;;;;4916914;29;20207;-78
2021/06/02 02:28:48;;;;;;;8.27;7.57;;;9.70;99.90;;;;;;4949990;28;20619;-78
2021/06/02 02:31:34;;;;;;;9.10;8.37;;;9.70;99.90;;;;;;4936140;29;20664;-77
2021/06/02 02:34:06;;;;;;;8.13;7.43;;;9.60;99.90;;;;;;4951851;28;20199;-78
2021/06/02 02:36:38;;;;;;;8.27;7.50;;;9.60;99.90;;;;;;4942465;29;20696;-78
2021/06/02 02:39:13;;;;;;;8.83;7.93;;;9.60;99.90;;;;;;4939582;29;20205;-79
2021/06/02 02:41:55;;;;;;;9.77;8.33;;;9.50;99.90;;;;;;4935817;29;20233;-77
2021/06/02 02:44:34;;;;;;;9.07;8.27;;;9.40;99.90;;;;;;4936022;29;20198;-78
2021/06/02 02:47:11;;;;;;;8.83;8.13;;;9.40;99.90;;;;;;4944775;29;20561;-82
2021/06/02 02:49:46;;;;;;;8.57;7.80;;;9.30;99.90;;;;;;4959024;28;20199;-78
2021/06/02 02:52:18;;;;;;;8.23;7.53;;;9.20;99.90;;;;;;4952896;28;20698;-79
2021/06/02 02:54:53;;;;;;;8.17;7.37;;;9.20;99.90;;;;;;4937521;28;20270;-80
2021/06/02 02:57:38;;;;;;;9.00;8.10;;;9.20;99.90;;;;;;4950784;29;20209;-80
2021/06/02 03:00:07;;;;;;;7.97;7.17;;;9.10;99.90;;;;;;4930497;29;20490;-78
2021/06/02 03:02:42;;;;;;;7.57;6.90;;;9.10;99.90;;;;;;4940081;29;20225;-79
2021/06/02 03:05:13;;;;;;;8.83;7.97;;;9.00;99.90;;;;;;4957248;28;20205;-78
2021/06/02 03:07:45;;;;;;;11.50;8.30;;;9.00;99.90;;;;;;4974394;28;20212;-78
2021/06/02 03:10:14;;;;;;;9.00;8.20;;;9.00;99.90;;;;;;4971884;28;20214;-78
2021/06/02 03:12:51;;;;;;;8.40;7.60;;;9.00;99.90;;;;;;4974467;28;20225;-78
2021/06/02 03:15:38;;;;;;;10.40;9.40;;;8.90;99.90;;;;;;4962108;28;20213;-79
2021/06/02 03:18:27;;;;;;;8.63;7.93;;;8.90;99.90;;;;;;4956144;28;20198;-77
2021/06/02 03:21:06;;;;;;;9.00;8.13;;;9.00;99.90;;;;;;4935138;29;20205;-78
2021/06/02 03:23:49;;;;;;;9.40;8.50;;;9.00;99.90;;;;;;4953973;29;20194;-79
2021/06/02 03:26:18;;;;;;;8.73;7.93;;;9.00;99.90;;;;;;4933621;29;20211;-79
2021/06/02 03:29:01;;;;;;;9.23;8.43;;;9.00;99.90;;;;;;4964873;28;20203;-77
2021/06/02 03:34:15;;;;;;;9.00;8.03;;;8.90;99.90;;;;;;4986512;23;20244;-75
2021/06/02 03:36:48;;;;;;;9.50;8.50;;;9.00;99.90;;;;;;4951653;29;20257;-75
2021/06/02 03:39:22;;;;;;;11.00;9.63;;;8.90;99.90;;;;;;4950556;28;20212;-77
2021/06/02 03:42:00;;;;;;;11.87;9.10;;;8.90;99.90;;;;;;4983644;28;20195;-77
2021/06/02 03:44:47;;;;;;;9.77;8.63;;;8.90;99.90;;;;;;4985998;28;20214;-78
2021/06/02 03:47:29;;;;;;;9.47;8.57;;;8.90;99.90;;;;;;4979170;28;20216;-77
2021/06/02 03:50:06;;;;;;;17.53;9.23;;;9.00;99.90;;;;;;4966107;28;20333;-77
2021/06/02 03:52:44;;;;;;;16.87;9.40;;;9.00;99.90;;;;;;4964717;28;20279;-77
2021/06/02 03:55:20;;;;;;;14.00;8.60;;;9.00;99.90;;;;;;4973004;28;20193;-76
2021/06/02 03:57:55;;;;;;;9.03;8.23;;;9.00;99.90;;;;;;4979168;28;20193;-78
2021/06/02 04:00:33;;;;;;;9.57;8.70;;;9.00;99.90;;;;;;4978835;28;20197;-78
2021/06/02 04:03:07;;;;;;;9.77;8.30;;;9.10;99.90;;;;;;4991035;28;20618;-77
2021/06/02 04:05:49;;;;;;;9.40;8.60;;;9.20;99.90;;;;;;4967081;28;20208;-77
2021/06/02 04:08:37;;;;;;;10.13;9.20;;;9.20;99.90;;;;;;4963532;28;20712;-77
2021/06/02 04:11:14;;;;;;;10.43;9.43;;;9.40;99.90;;;;;;4964350;28;20210;-77
2021/06/02 04:13:53;;;;;;;9.60;8.63;;;9.50;99.90;;;;;;4963213;28;20240;-77
2021/06/02 04:16:22;;;;;;;6.70;5.93;;;9.70;99.90;;;;;;4948753;28;20208;-77
2021/06/02 04:18:50;;;;;;;7.30;6.47;;;9.80;99.90;;;;;;4971370;28;20229;-77
2021/06/02 04:21:23;;;;;;;9.17;8.43;;;9.80;99.90;;;;;;4974811;28;20553;-78
2021/06/02 04:23:50;;;;;;;7.53;6.70;;;9.90;99.90;;;;;;4959935;28;20220;-77
2021/06/02 04:26:17;;;;;;;9.10;8.40;;;10.00;99.90;;;;;;4977575;28;20197;-77
2021/06/02 04:28:44;;;;;;;7.03;6.43;;;10.10;99.90;;;;;;4975872;28;20282;-76
2021/06/02 04:31:12;;;;;;;6.37;5.77;;;10.10;99.90;;;;;;4978206;28;20225;-76
2021/06/02 04:33:41;;;;;;;6.37;5.77;;;10.20;99.90;;;;;;4974207;28;20256;-76
2021/06/02 04:36:10;;;;;;;7.53;6.83;;;10.30;99.90;;;;;;4951652;29;20205;-77
2021/06/02 04:38:38;;;;;;;6.27;5.67;;;10.40;99.90;;;;;;4959350;28;20202;-78
2021/06/02 04:41:06;;;;;;;6.13;5.50;;;10.60;99.90;;;;;;4965934;28;20199;-78
2021/06/02 04:43:36;;;;;;;5.73;5.13;;;10.70;99.90;;;;;;4954204;28;20244;-77
2021/06/02 04:46:04;;;;;;;5.33;4.80;;;11.00;99.90;;;;;;4956775;28;20206;-77
2021/06/02 04:48:30;;;;;;;5.50;4.27;;;11.30;99.90;;;;;;4966573;28;20203;-78
2021/06/02 04:51:07;;;;;;;4.73;4.33;;;11.80;99.90;;;;;;4971925;28;20221;-77
2021/06/02 04:54:14;;;;;;;5.10;4.47;;;12.10;99.90;;;;;;4967919;28;20217;-77
2021/06/02 04:57:28;;;;;;;6.23;5.10;;;12.20;99.90;;;;;;4968222;28;20210;-77
2021/06/02 05:00:30;;;;;;;5.10;4.60;;;12.50;99.90;;;;;;4936459;28;20670;-77
2021/06/02 05:03:17;;;;;;;5.03;4.53;;;12.80;99.90;;;;;;4967071;28;20229;-77
2021/06/02 05:06:20;;;;;;;5.40;4.90;;;12.90;99.90;;;;;;4954171;28;20640;-77
2021/06/02 05:09:07;;;;;;;4.73;4.33;;;12.90;99.90;;;;;;4921715;29;20202;-77
2021/06/02 05:12:18;;;;;;;5.53;5.03;;;13.00;99.90;;;;;;4966210;28;20214;-77
2021/06/02 05:15:22;;;;;;;5.77;5.23;;;13.00;99.90;;;;;;4965330;28;20209;-78
2021/06/02 05:18:01;;;;;;;5.67;5.17;;;13.20;99.90;;;;;;4944669;29;20207;-77
2021/06/02 05:24:02;;;;;;;4.70;4.30;;;13.80;99.90;;;;;;4968476;28;20295;-78
2021/06/02 05:27:11;;;;;;;4.90;4.50;;;13.80;99.90;;;;;;4948539;28;20210;-78
2021/06/02 05:30:15;;;;;;;5.80;5.30;;;14.00;99.90;;;;;;4967288;28;20212;-78
2021/06/02 05:33:30;;;;;;;4.30;3.90;;;13.90;99.90;;;;;;4934361;28;20247;-78
2021/06/02 05:36:37;;;;;;;4.83;3.60;;;14.00;99.90;;;;;;4973535;28;20621;-79
2021/06/02 05:39:31;;;;;;;4.80;4.27;;;14.50;99.90;;;;;;4983194;28;20269;-78
2021/06/02 05:42:15;;;;;;;5.50;5.00;;;15.20;99.90;;;;;;4946695;28;20230;-78
2021/06/02 05:45:11;;;;;;;6.33;5.23;;;15.90;99.90;;;;;;4965064;28;20204;-77
2021/06/02 05:48:26;;;;;;;3.60;3.30;;;16.90;99.90;;;;;;4948724;29;20246;-78
2021/06/02 05:51:17;;;;;;;5.77;4.73;;;17.70;99.90;;;;;;4967126;28;20218;-78
2021/06/02 05:54:10;;;;;;;4.90;4.40;;;18.40;99.90;;;;;;4957735;28;20228;-78
2021/06/02 05:57:04;;;;;;;5.60;5.10;;;18.80;99.90;;;;;;4969415;28;20257;-77
2021/06/02 06:00:16;;;;;;;5.10;4.70;;;19.50;99.90;;;;;;4977024;28;20228;-78
2021/06/02 06:03:19;;;;;;;5.50;5.10;;;19.90;99.90;;;;;;4967011;28;20235;-77
2021/06/02 06:05:58;;;;;;;6.40;5.80;;;20.40;99.90;;;;;;4979783;28;20206;-78
2021/06/02 06:09:02;;;;;;;6.40;5.80;;;20.70;99.90;;;;;;4955399;28;20298;-79
2021/06/02 06:12:08;;;;;;;6.23;5.60;;;21.10;99.90;;;;;;4953568;28;20724;-78
2021/06/02 06:15:08;;;;;;;6.60;5.43;;;21.40;99.90;;;;;;4947382;28;20205;-78
2021/06/02 06:17:46;;;;;;;6.20;5.60;;;21.50;99.70;;;;;;4946849;28;20674;-77
2021/06/02 06:20:32;;;;;;;5.97;4.00;;;21.70;99.40;;;;;;4960529;28;20202;-78
2021/06/02 06:23:14;;;;;;;4.53;3.53;;;21.80;99.30;;;;;;4949490;28;20222;-78
2021/06/02 06:25:47;;;;;;;10.00;3.90;;;22.00;98.90;;;;;;4968962;28;20201;-78
2021/06/02 06:28:21;;;;;;;4.33;3.60;;;22.10;98.40;;;;;;4950158;28;20289;-78
2021/06/02 06:30:49;;;;;;;3.80;3.40;;;22.10;98.30;;;;;;4949333;28;20221;-79
2021/06/02 06:33:18;;;;;;;5.73;5.30;;;22.10;97.80;;;;;;4947332;28;20320;-78
2021/06/02 06:35:47;;;;;;;4.73;3.70;;;22.30;98.20;;;;;;4967500;28;20206;-78
2021/06/02 06:38:23;;;;;;;4.10;3.30;;;22.60;97.70;;;;;;4968455;28;20199;-78
2021/06/02 06:40:51;;;;;;;5.73;3.73;;;22.70;97.00;;;;;;4964740;28;20867;-79
2021/06/02 06:43:21;;;;;;;6.23;5.73;;;22.60;97.40;;;;;;4966071;28;20252;-78
2021/06/02 06:45:53;;;;;;;5.50;5.00;;;22.80;97.20;;;;;;4952372;29;20207;-78
2021/06/02 06:48:24;;;;;;;5.87;4.53;;;22.80;96.10;;;;;;4953351;28;20246;-79
2021/06/02 06:50:53;;;;;;;4.70;4.20;;;22.60;96.40;;;;;;4972336;28;20284;-79
2021/06/02 06:53:22;;;;;;;5.60;4.60;;;23.00;95.70;;;;;;4968061;28;20414;-78
2021/06/02 06:55:50;;;;;;;3.77;3.13;;;23.10;95.70;;;;;;4944819;28;20206;-78
2021/06/02 06:58:17;;;;;;;6.17;3.43;;;23.30;93.90;;;;;;4964301;28;20203;-79
2021/06/02 07:00:44;;;;;;;4.20;2.83;;;23.40;94.30;;;;;;4972344;28;20276;-79
2021/06/02 07:03:11;;;;;;;3.73;3.03;;;23.80;93.90;;;;;;4972663;28;20221;-78
2021/06/02 07:05:40;;;;;;;6.10;3.20;;;23.80;93.90;;;;;;4961646;28;20210;-78
2021/06/02 07:08:07;;;;;;;5.47;3.20;;;24.00;93.90;;;;;;4966590;28;20209;-79
2021/06/02 07:10:34;;;;;;;7.47;3.57;;;23.80;93.10;;;;;;4971373;28;20219;-79
2021/06/02 07:13:01;;;;;;;3.83;3.27;;;24.00;94.50;;;;;;4955375;28;20253;-79
2021/06/02 07:15:29;;;;;;;3.20;2.90;;;24.10;94.10;;;;;;4965212;28;20210;-78
2021/06/02 07:17:56;;;;;;;3.37;2.90;;;24.60;93.00;;;;;;4973419;28;20585;-79
2021/06/02 07:20:25;;;;;;;5.90;5.27;;;24.80;93.20;;;;;;4965437;28;20220;-78
2021/06/02 07:22:54;;;;;;;6.10;5.50;;;25.00;92.50;;;;;;4972460;28;20289;-78
2021/06/02 07:25:22;;;;;;;5.90;5.40;;;25.00;93.30;;;;;;4970980;28;20569;-79
2021/06/02 07:27:49;;;;;;;5.60;5.20;;;25.10;92.70;;;;;;4977191;28;20224;-79
2021/06/02 07:30:18;;;;;;;5.90;5.40;;;25.10;91.80;;;;;;4947981;28;20206;-79
2021/06/02 07:32:44;;;;;;;6.00;5.50;;;25.10;92.70;;;;;;4941714;29;20234;-79
2021/06/02 07:35:12;;;;;;;6.80;5.30;;;25.20;93.20;;;;;;4954963;28;20200;-79
2021/06/02 07:37:39;;;;;;;5.90;5.40;;;25.10;92.70;;;;;;4972238;28;20205;-81
2021/06/02 07:40:08;;;;;;;5.53;5.03;;;24.90;92.00;;;;;;4971149;28;20205;-81
2021/06/02 07:42:35;;;;;;;5.33;4.93;;;25.10;91.00;;;;;;4947074;28;20222;-79
2021/06/02 07:45:02;;;;;;;6.23;5.67;;;25.30;88.80;;;;;;4954929;28;20401;-80
2021/06/02 07:47:29;;;;;;;6.73;5.57;;;25.60;88.30;;;;;;4966779;28;20206;-80
2021/06/02 07:49:55;;;;;;;6.20;5.60;;;25.60;88.40;;;;;;4975095;28;20198;-80
2021/06/02 07:52:22;;;;;;;6.00;5.50;;;25.80;90.30;;;;;;4973238;28;20252;-80
2021/06/02 07:54:48;;;;;;;5.77;5.27;;;25.80;90.10;;;;;;4953492;28;20214;-80
2021/06/02 07:57:16;;;;;;;5.97;5.57;;;26.00;91.40;;;;;;4965894;28;20194;-80
2021/06/02 07:59:42;;;;;;;5.20;4.77;;;26.30;89.50;;;;;;4968700;28;20317;-78
2021/06/02 08:02:08;;;;;;;5.10;4.70;;;26.00;90.30;;;;;;4957352;28;20284;-80
2021/06/02 08:04:35;;;;;;;5.30;4.90;;;26.30;91.30;;;;;;4976408;28;20221;-79
2021/06/02 08:07:01;;;;;;;5.30;4.80;;;26.50;90.30;;;;;;4958762;28;20289;-80
2021/06/02 08:09:28;;;;;;;6.17;5.30;;;26.50;90.30;;;;;;4953485;28;20234;-80
2021/06/02 08:11:54;;;;;;;5.53;5.03;;;26.30;89.90;;;;;;4974824;28;20219;-79
2021/06/02 08:14:22;;;;;;;5.70;5.20;;;26.30;90.20;;;;;;4966039;28;20198;-80
2021/06/02 08:16:48;;;;;;;6.80;5.57;;;25.90;90.50;;;;;;4958490;28;20202;-79
2021/06/02 08:19:15;;;;;;;6.33;5.00;;;26.00;90.60;;;;;;4955929;28;20203;-79
2021/06/02 08:21:41;;;;;;;5.63;5.00;;;26.30;90.50;;;;;;4978058;28;20226;-79
2021/06/02 08:24:08;;;;;;;5.17;4.77;;;26.40;90.00;;;;;;4961992;28;20208;-79
2021/06/02 08:26:36;;;;;;;5.20;4.70;;;26.80;88.30;;;;;;4973095;28;20258;-79
2021/06/02 08:29:03;;;;;;;5.37;4.87;;;26.80;86.70;;;;;;4974014;28;20282;-79
2021/06/02 08:31:31;;;;;;;5.37;4.97;;;26.70;86.90;;;;;;4986220;28;20197;-80
2021/06/02 08:33:58;;;;;;;5.30;4.80;;;26.80;88.00;;;;;;4989191;28;20201;-79
2021/06/02 08:36:24;;;;;;;5.33;4.80;;;26.70;87.60;;;;;;4969925;28;20198;-79
2021/06/02 08:38:50;;;;;;;7.57;4.97;;;26.40;88.00;;;;;;4974187;28;20307;-80
2021/06/02 08:41:17;;;;;;;7.30;6.60;;;26.30;90.00;;;;;;4972889;28;20213;-79
2021/06/02 08:43:46;;;;;;;6.70;6.10;;;26.40;90.40;;;;;;4976055;28;20226;-79
2021/06/02 08:46:14;;;;;;;5.83;5.43;;;26.90;89.50;;;;;;4969388;28;20314;-79
2021/06/02 08:48:44;;;;;;;6.57;5.90;;;26.90;85.90;;;;;;4958933;28;20201;-79
2021/06/02 08:51:11;;;;;;;6.83;6.33;;;26.80;86.80;;;;;;4972848;28;20587;-79
2021/06/02 08:53:37;;;;;;;7.30;6.60;;;26.90;86.70;;;;;;4971483;28;20224;-78
2021/06/02 08:56:05;;;;;;;7.23;6.63;;;26.70;84.20;;;;;;4985834;28;20213;-79
2021/06/02 08:58:32;;;;;;;7.60;6.90;;;26.90;86.60;;;;;;4964644;28;20200;-79
2021/06/02 09:00:58;;;;;;;6.60;5.60;;;27.30;88.60;;;;;;4975401;28;20213;-79
2021/06/02 09:03:25;;;;;;;5.87;5.37;;;27.40;85.70;;;;;;4966513;28;20281;-79
2021/06/02 09:05:55;;;;;;;7.63;5.43;;;27.70;85.90;;;;;;4942204;29;20617;-79
2021/06/02 09:08:24;;;;;;;6.27;5.77;;;27.80;83.30;;;;;;4970339;28;20210;-79
2021/06/02 09:10:50;;;;;;;7.30;6.70;;;27.80;82.40;;;;;;4970706;28;20198;-79
2021/06/02 09:13:19;;;;;;;6.83;6.17;;;27.90;82.90;;;;;;4941249;28;20234;-79
2021/06/02 09:15:47;;;;;;;6.37;5.80;;;27.70;82.90;;;;;;4966463;28;20198;-80
2021/06/02 09:18:15;;;;;;;6.87;6.17;;;27.70;82.10;;;;;;4970641;28;20213;-79
2021/06/02 09:20:45;;;;;;;6.90;6.40;;;27.60;80.00;;;;;;4958791;28;20201;-78
2021/06/02 09:23:32;;;;;;;6.30;5.80;;;27.80;81.90;;;;;;4945368;28;20285;-79
2021/06/02 09:26:31;;;;;;;6.73;5.73;;;27.70;80.50;;;;;;4977698;28;20195;-79
2021/06/02 09:29:00;;;;;;;5.30;4.90;;;27.80;81.20;;;;;;4888359;29;20279;-78
2021/06/02 09:31:37;;;;;;;5.80;5.30;;;28.20;79.00;;;;;;4879930;29;20192;-78
2021/06/02 09:34:13;;;;;;;5.20;4.80;;;28.40;78.00;;;;;;4930237;23;20232;-77
2021/06/02 09:36:40;;;;;;;6.13;5.53;;;28.80;76.80;;;;;;4909600;29;20216;-76
2021/06/02 09:39:10;;;;;;;5.00;4.70;;;29.20;75.40;;;;;;4933891;29;20207;-78
2021/06/02 09:41:41;;;;;;;5.10;4.80;;;29.10;71.50;;;;;;4926815;29;20211;-78
2021/06/02 09:44:18;;;;;;;6.60;5.10;;;28.80;73.50;;;;;;4934071;29;20266;-77
2021/06/02 09:46:59;;;;;;;6.57;5.17;;;28.80;71.70;;;;;;4928346;29;20190;-76
2021/06/02 09:49:26;;;;;;;5.13;4.73;;;28.60;74.90;;;;;;4916972;29;20203;-77
2021/06/02 09:51:53;;;;;;;5.30;4.67;;;28.80;74.30;;;;;;4917125;29;20202;-77
2021/06/02 09:54:23;;;;;;;5.63;4.80;;;29.00;74.40;;;;;;4915485;29;20226;-75
2021/06/02 09:56:50;;;;;;;5.20;4.80;;;29.40;73.10;;;;;;4933236;29;20195;-78
2021/06/02 09:59:18;;;;;;;5.20;4.90;;;29.60;68.30;;;;;;4916146;29;20680;-77
2021/06/02 10:01:53;;;;;;;4.90;4.50;;;29.80;69.30;;;;;;4930992;29;20261;-77
2021/06/02 10:04:20;;;;;;;5.20;4.60;;;29.30;67.80;;;;;;4915539;29;20227;-76
2021/06/02 10:06:47;;;;;;;6.07;4.63;;;29.30;66.00;;;;;;4918094;29;20214;-82
2021/06/02 10:09:13;;;;;;;5.13;4.73;;;29.20;66.20;;;;;;4931945;29;20203;-81
2021/06/02 10:11:56;;;;;;;6.13;5.73;;;29.10;64.60;;;;;;4918830;29;20202;-80
2021/06/02 10:14:23;;;;;;;5.30;4.90;;;29.00;66.10;;;;;;4932051;29;20231;-80
2021/06/02 10:16:49;;;;;;;5.17;4.77;;;29.40;66.80;;;;;;4932240;29;20274;-80
2021/06/02 10:19:16;;;;;;;5.50;5.00;;;29.60;65.70;;;;;;4928416;29;20299;-80
2021/06/02 10:21:44;;;;;;;5.10;4.70;;;29.40;64.90;;;;;;4932357;29;20298;-80
2021/06/02 10:24:10;;;;;;;6.83;6.40;;;29.50;63.90;;;;;;4933589;29;20226;-80
2021/06/02 10:26:38;;;;;;;6.60;6.20;;;29.30;63.50;;;;;;4926964;29;20231;-78
2021/06/02 10:29:07;;;;;;;6.40;6.00;;;29.40;67.50;;;;;;4930662;29;20285;-80
2021/06/02 10:31:34;;;;;;;7.03;6.10;;;29.40;65.90;;;;;;4915308;29;20231;-80
2021/06/02 10:34:00;;;;;;;6.03;5.63;;;29.40;66.50;;;;;;4914528;29;20262;-79
2021/06/02 10:36:27;;;;;;;6.20;5.80;;;29.20;68.30;;;;;;4926928;29;20270;-80
2021/06/02 10:38:56;;;;;;;6.20;5.80;;;29.30;68.40;;;;;;4918927;29;20269;-79
2021/06/02 10:41:27;;;;;;;6.57;6.00;;;28.90;66.40;;;;;;4933150;29;20231;-80
2021/06/02 10:43:58;;;;;;;6.37;5.90;;;29.00;65.90;;;;;;4918906;29;20203;-80
2021/06/02 10:46:27;;;;;;;6.33;5.83;;;28.90;67.00;;;;;;4933297;29;20254;-79
2021/06/02 10:48:55;;;;;;;6.00;5.60;;;28.90;69.60;;;;;;4935309;29;20211;-79
2021/06/02 10:51:26;;;;;;;6.20;5.80;;;28.50;68.30;;;;;;4920541;29;20207;-80
2021/06/02 10:54:04;;;;;;;6.33;5.83;;;28.30;63.20;;;;;;4922110;29;20211;-80
2021/06/02 10:56:31;;;;;;;6.20;5.80;;;28.00;66.70;;;;;;4918101;29;20204;-79
2021/06/02 10:58:57;;;;;;;6.50;5.90;;;27.60;66.60;;;;;;4939161;29;20207;-79
2021/06/02 11:01:25;;;;;;;6.50;6.00;;;27.50;64.90;;;;;;4933929;29;20290;-80
2021/06/02 11:04:11;;;;;;;5.83;5.50;;;27.20;66.50;;;;;;4921406;29;20213;-79
2021/06/02 11:06:40;;;;;;;6.67;6.17;;;27.30;68.10;;;;;;4933598;29;20687;-79
2021/06/02 11:09:22;;;;;;;6.83;6.33;;;27.20;69.40;;;;;;4938863;29;20196;-79
2021/06/02 11:12:00;;;;;;;7.00;6.30;;;27.30;66.00;;;;;;4934331;29;20415;-80
2021/06/02 11:14:27;;;;;;;6.50;6.10;;;27.10;66.70;;;;;;4936672;29;20223;-80
2021/06/02 11:17:01;;;;;;;6.43;5.93;;;27.10;64.80;;;;;;4934936;29;20697;-80
2021/06/02 11:19:30;;;;;;;6.90;6.40;;;26.60;67.10;;;;;;4920141;29;20278;-79
2021/06/02 11:22:01;;;;;;;6.50;6.00;;;26.40;70.50;;;;;;4921202;29;20310;-79
2021/06/02 11:24:44;;;;;;;6.80;6.20;;;26.40;68.30;;;;;;4933211;29;20227;-79
2021/06/02 11:27:30;;;;;;;7.07;6.47;;;26.30;68.80;;;;;;4915893;29;20211;-81
2021/06/02 11:30:21;;;;;;;6.53;5.93;;;26.20;69.00;;;;;;4921309;29;20212;-81
2021/06/02 11:33:07;;;;;;;6.53;5.90;;;26.10;67.30;;;;;;4937483;29;20672;-80
2021/06/02 11:36:08;;;;;;;6.13;5.70;;;25.90;66.50;;;;;;4921156;29;20243;-80
2021/06/02 11:38:35;;;;;;;6.60;5.90;;;25.80;69.70;;;;;;4938526;29;20230;-79
2021/06/02 11:41:02;;;;;;;6.40;5.80;;;25.80;66.60;;;;;;4938487;29;20294;-80
2021/06/02 11:43:28;;;;;;;5.37;5.07;;;25.70;67.10;;;;;;4938269;29;20202;-80
2021/06/02 11:45:59;;;;;;;6.10;5.60;;;25.80;69.10;;;;;;4921232;29;20239;-80
2021/06/02 11:48:30;;;;;;;5.90;5.40;;;25.70;67.40;;;;;;4917197;29;20199;-79
2021/06/02 11:51:00;;;;;;;5.80;5.40;;;25.70;70.80;;;;;;4928073;29;20208;-81
2021/06/02 11:53:44;;;;;;;5.60;5.20;;;25.90;69.80;;;;;;4913125;29;20206;-80
2021/06/02 11:56:11;;;;;;;5.60;5.20;;;26.10;69.90;;;;;;4929466;29;20218;-81
2021/06/02 11:58:38;;;;;;;6.00;5.50;;;26.30;69.50;;;;;;4935331;29;20203;-80
2021/06/02 12:01:04;;;;;;;6.43;5.10;;;26.30;67.80;;;;;;4936161;29;20202;-79
2021/06/02 12:03:32;;;;;;;5.93;5.43;;;26.10;70.30;;;;;;4937050;29;20197;-79
2021/06/02 12:05:58;;;;;;;5.63;5.10;;;26.20;71.00;;;;;;4935647;29;20226;-79
2021/06/02 12:08:25;;;;;;;6.17;5.43;;;26.10;71.30;;;;;;4936987;29;20246;-80
2021/06/02 12:10:53;;;;;;;5.77;5.37;;;26.00;69.90;;;;;;4917573;29;20210;-80
2021/06/02 12:13:21;;;;;;;5.40;5.10;;;26.10;71.10;;;;;;4937068;29;20207;-80
2021/06/02 12:15:49;;;;;;;6.00;5.50;;;26.30;71.70;;;;;;4936777;29;20592;-79
2021/06/02 12:18:32;;;;;;;6.17;5.60;;;26.20;70.70;;;;;;4917320;29;20608;-80
2021/06/02 12:21:07;;;;;;;5.70;5.20;;;26.10;70.10;;;;;;4919036;29;20210;-80
2021/06/02 12:23:33;;;;;;;5.50;5.20;;;26.10;73.00;;;;;;4919708;29;20208;-79
2021/06/02 12:26:00;;;;;;;6.07;5.53;;;26.10;71.70;;;;;;4917624;29;20234;-77
2021/06/02 12:28:26;;;;;;;6.10;5.60;;;26.00;68.30;;;;;;4932149;29;20566;-77
2021/06/02 12:30:52;;;;;;;5.60;5.30;;;25.90;70.90;;;;;;4931528;29;20202;-77
2021/06/02 12:33:18;;;;;;;6.10;5.70;;;25.90;67.90;;;;;;4935036;29;20203;-78
2021/06/02 12:35:47;;;;;;;5.87;5.47;;;25.70;68.70;;;;;;4935063;29;20234;-77
2021/06/02 12:38:15;;;;;;;6.20;5.70;;;25.70;69.80;;;;;;4932117;29;20202;-77
2021/06/02 12:40:44;;;;;;;5.90;5.50;;;26.00;71.20;;;;;;4935237;29;20207;-77
2021/06/02 12:43:13;;;;;;;6.80;5.50;;;26.00;71.80;;;;;;4931153;29;20282;-77
2021/06/02 12:45:39;;;;;;;5.90;5.50;;;25.90;69.10;;;;;;4934048;29;20235;-77
2021/06/02 12:48:07;;;;;;;5.10;4.80;;;25.80;70.20;;;;;;4935204;29;20210;-78
2021/06/02 12:50:38;;;;;;;5.70;5.30;;;25.70;71.10;;;;;;4934890;29;20202;-77
2021/06/02 12:53:07;;;;;;;5.60;5.20;;;25.70;71.80;;;;;;4917639;29;20206;-77
2021/06/02 12:55:35;;;;;;;5.30;5.00;;;25.80;70.30;;;;;;4931064;29;20224;-77
2021/06/02 12:58:04;;;;;;;5.50;5.17;;;25.70;69.10;;;;;;4916942;29;20234;-77
2021/06/02 13:00:31;;;;;;;5.33;5.00;;;25.70;71.60;;;;;;4930988;29;20210;-77
2021/06/02 13:02:58;;;;;;;5.13;4.83;;;25.70;69.70;;;;;;4917466;29;20230;-77
2021/06/02 13:05:26;;;;;;;5.73;5.20;;;25.70;69.70;;;;;;4932792;29;20729;-77
2021/06/02 13:08:02;;;;;;;5.43;5.10;;;25.90;72.40;;;;;;4934715;29;20668;-77
2021/06/02 13:10:31;;;;;;;5.67;5.27;;;25.80;68.30;;;;;;4934653;29;20199;-78
2021/06/02 13:13:00;;;;;;;5.50;5.20;;;25.90;68.00;;;;;;4934079;29;20195;-76
2021/06/02 13:15:28;;;;;;;6.20;5.70;;;25.90;67.90;;;;;;4934322;29;20269;-77
2021/06/02 13:17:55;;;;;;;5.60;5.20;;;25.80;69.20;;;;;;4935929;29;20205;-79
2021/06/02 13:20:33;;;;;;;6.10;5.60;;;25.70;69.10;;;;;;4918653;29;20206;-79
2021/06/02 13:23:15;;;;;;;5.83;5.43;;;25.80;69.60;;;;;;4919001;29;20248;-79
2021/06/02 13:25:44;;;;;;;5.80;5.40;;;25.70;68.80;;;;;;4931802;29;20233;-80
2021/06/02 13:28:11;;;;;;;5.60;5.20;;;25.80;71.00;;;;;;4918517;29;20308;-80
2021/06/02 13:30:42;;;;;;;6.07;5.60;;;25.80;69.60;;;;;;4913573;29;20673;-79
2021/06/02 13:33:09;;;;;;;5.67;5.30;;;25.80;70.40;;;;;;4935621;29;20684;-79